sensor_id;sensor_type;location;lat;lon;timestamp;P1;durP1;ratioP1;P2;durP2;ratioP2
7017;SDS011;3549;42.162;24.726;2023-02-26T00:00:11;41.67;;;20.50;;
7017;SDS011;3549;42.162;24.726;2023-02-26T00:02:40;42.23;;;17.53;;
7017;SDS011;3549;42.162;24.726;2023-02-26T00:05:07;51.10;;;21.40;;
7017;SDS011;3549;42.162;24.726;2023-02-26T00:07:34;37.17;;;17.23;;
7017;SDS011;3549;42.162;24.726;2023-02-26T00:09:59;34.63;;;17.00;;
7017;SDS011;3549;42.162;24.726;2023-02-26T00:12:28;35.83;;;17.47;;
7017;SDS011;3549;42.162;24.726;2023-02-26T00:14:55;35.30;;;16.70;;
7017;SDS011;3549;42.162;24.726;2023-02-26T00:19:49;33.67;;;16.27;;
7017;SDS011;3549;42.162;24.726;2023-02-26T00:22:16;34.60;;;16.13;;
7017;SDS011;3549;42.162;24.726;2023-02-26T00:24:41;35.60;;;15.60;;
7017;SDS011;3549;42.162;24.726;2023-02-26T00:27:08;34.77;;;16.13;;
7017;SDS011;3549;42.162;24.726;2023-02-26T00:29:35;37.83;;;16.20;;
7017;SDS011;3549;42.162;24.726;2023-02-26T00:32:02;38.63;;;16.00;;
7017;SDS011;3549;42.162;24.726;2023-02-26T00:34:28;35.07;;;14.90;;
7017;SDS011;3549;42.162;24.726;2023-02-26T00:39:50;34.07;;;15.40;;
7017;SDS011;3549;42.162;24.726;2023-02-26T00:42:34;31.53;;;15.10;;
7017;SDS011;3549;42.162;24.726;2023-02-26T00:44:59;31.33;;;13.80;;
7017;SDS011;3549;42.162;24.726;2023-02-26T00:47:43;28.17;;;13.50;;
7017;SDS011;3549;42.162;24.726;2023-02-26T00:55:28;27.13;;;13.57;;
7017;SDS011;3549;42.162;24.726;2023-02-26T00:57:54;26.60;;;12.93;;
7017;SDS011;3549;42.162;24.726;2023-02-26T01:00:19;28.63;;;13.27;;
7017;SDS011;3549;42.162;24.726;2023-02-26T01:02:45;28.40;;;12.60;;
7017;SDS011;3549;42.162;24.726;2023-02-26T01:05:12;27.30;;;12.80;;
7017;SDS011;3549;42.162;24.726;2023-02-26T01:07:43;24.23;;;12.17;;
7017;SDS011;3549;42.162;24.726;2023-02-26T01:10:13;29.13;;;12.77;;
7017;SDS011;3549;42.162;24.726;2023-02-26T01:12:40;26.47;;;11.43;;
7017;SDS011;3549;42.162;24.726;2023-02-26T01:15:07;29.60;;;12.13;;
7017;SDS011;3549;42.162;24.726;2023-02-26T01:17:44;29.90;;;12.13;;
7017;SDS011;3549;42.162;24.726;2023-02-26T01:20:17;25.00;;;12.03;;
7017;SDS011;3549;42.162;24.726;2023-02-26T01:22:51;26.93;;;12.20;;
7017;SDS011;3549;42.162;24.726;2023-02-26T01:25:27;27.90;;;12.10;;
7017;SDS011;3549;42.162;24.726;2023-02-26T01:27:53;26.23;;;12.43;;
7017;SDS011;3549;42.162;24.726;2023-02-26T01:30:21;27.47;;;11.37;;
7017;SDS011;3549;42.162;24.726;2023-02-26T01:35:44;29.63;;;11.97;;
7017;SDS011;3549;42.162;24.726;2023-02-26T01:38:31;26.03;;;11.97;;
7017;SDS011;3549;42.162;24.726;2023-02-26T01:41:14;25.90;;;11.50;;
7017;SDS011;3549;42.162;24.726;2023-02-26T01:46:34;28.10;;;11.30;;
7017;SDS011;3549;42.162;24.726;2023-02-26T01:49:01;22.67;;;11.47;;
7017;SDS011;3549;42.162;24.726;2023-02-26T01:51:48;22.97;;;11.07;;
7017;SDS011;3549;42.162;24.726;2023-02-26T01:54:16;22.50;;;10.97;;
7017;SDS011;3549;42.162;24.726;2023-02-26T01:56:46;26.73;;;11.63;;
7017;SDS011;3549;42.162;24.726;2023-02-26T01:59:15;28.37;;;11.73;;
7017;SDS011;3549;42.162;24.726;2023-02-26T02:01:48;23.53;;;11.80;;
7017;SDS011;3549;42.162;24.726;2023-02-26T02:04:17;24.93;;;11.03;;
7017;SDS011;3549;42.162;24.726;2023-02-26T02:06:44;21.77;;;11.00;;
7017;SDS011;3549;42.162;24.726;2023-02-26T02:09:11;25.50;;;11.40;;
7017;SDS011;3549;42.162;24.726;2023-02-26T02:11:39;24.47;;;10.83;;
7017;SDS011;3549;42.162;24.726;2023-02-26T02:14:20;23.23;;;10.37;;
7017;SDS011;3549;42.162;24.726;2023-02-26T02:16:58;21.37;;;7.37;;
7017;SDS011;3549;42.162;24.726;2023-02-26T02:25:19;18.70;;;5.30;;
7017;SDS011;3549;42.162;24.726;2023-02-26T02:28:29;18.07;;;5.07;;
7017;SDS011;3549;42.162;24.726;2023-02-26T02:31:11;17.60;;;5.63;;
7017;SDS011;3549;42.162;24.726;2023-02-26T02:33:59;14.67;;;5.47;;
7017;SDS011;3549;42.162;24.726;2023-02-26T02:39:33;19.00;;;6.03;;
7017;SDS011;3549;42.162;24.726;2023-02-26T02:48:03;13.87;;;5.23;;
7017;SDS011;3549;42.162;24.726;2023-02-26T02:50:36;15.07;;;5.20;;
7017;SDS011;3549;42.162;24.726;2023-02-26T02:53:14;15.17;;;4.83;;
7017;SDS011;3549;42.162;24.726;2023-02-26T02:55:48;17.27;;;4.90;;
7017;SDS011;3549;42.162;24.726;2023-02-26T02:58:30;16.53;;;4.97;;
7017;SDS011;3549;42.162;24.726;2023-02-26T03:01:02;17.47;;;4.90;;
7017;SDS011;3549;42.162;24.726;2023-02-26T03:03:34;12.47;;;5.10;;
7017;SDS011;3549;42.162;24.726;2023-02-26T03:06:13;14.63;;;5.83;;
7017;SDS011;3549;42.162;24.726;2023-02-26T03:08:40;14.20;;;5.27;;
7017;SDS011;3549;42.162;24.726;2023-02-26T03:11:25;13.67;;;5.17;;
7017;SDS011;3549;42.162;24.726;2023-02-26T03:13:51;17.20;;;5.40;;
7017;SDS011;3549;42.162;24.726;2023-02-26T03:19:15;16.30;;;5.30;;
7017;SDS011;3549;42.162;24.726;2023-02-26T03:21:45;15.07;;;5.57;;
7017;SDS011;3549;42.162;24.726;2023-02-26T03:27:06;18.53;;;7.97;;
7017;SDS011;3549;42.162;24.726;2023-02-26T03:29:41;18.13;;;7.83;;
7017;SDS011;3549;42.162;24.726;2023-02-26T03:32:18;22.50;;;8.00;;
7017;SDS011;3549;42.162;24.726;2023-02-26T03:34:53;20.60;;;7.80;;
7017;SDS011;3549;42.162;24.726;2023-02-26T03:37:26;19.00;;;7.87;;
7017;SDS011;3549;42.162;24.726;2023-02-26T03:40:00;16.50;;;7.90;;
7017;SDS011;3549;42.162;24.726;2023-02-26T03:42:40;21.10;;;8.03;;
7017;SDS011;3549;42.162;24.726;2023-02-26T03:45:12;25.13;;;8.07;;
7017;SDS011;3549;42.162;24.726;2023-02-26T03:47:44;17.63;;;7.50;;
7017;SDS011;3549;42.162;24.726;2023-02-26T03:50:15;22.77;;;8.00;;
7017;SDS011;3549;42.162;24.726;2023-02-26T03:52:46;19.03;;;8.77;;
7017;SDS011;3549;42.162;24.726;2023-02-26T03:55:19;23.90;;;9.03;;
7017;SDS011;3549;42.162;24.726;2023-02-26T03:57:49;17.60;;;8.87;;
7017;SDS011;3549;42.162;24.726;2023-02-26T04:00:15;22.90;;;9.23;;
7017;SDS011;3549;42.162;24.726;2023-02-26T04:05:36;16.67;;;8.40;;
7017;SDS011;3549;42.162;24.726;2023-02-26T04:08:06;23.70;;;8.47;;
7017;SDS011;3549;42.162;24.726;2023-02-26T04:10:33;18.27;;;8.50;;
7017;SDS011;3549;42.162;24.726;2023-02-26T04:13:04;21.93;;;8.53;;
7017;SDS011;3549;42.162;24.726;2023-02-26T04:15:30;17.73;;;7.80;;
7017;SDS011;3549;42.162;24.726;2023-02-26T04:17:55;17.63;;;7.90;;
7017;SDS011;3549;42.162;24.726;2023-02-26T04:20:21;23.30;;;8.97;;
7017;SDS011;3549;42.162;24.726;2023-02-26T04:22:46;23.67;;;8.27;;
7017;SDS011;3549;42.162;24.726;2023-02-26T04:25:12;25.53;;;15.00;;
7017;SDS011;3549;42.162;24.726;2023-02-26T04:27:37;23.23;;;8.10;;
7017;SDS011;3549;42.162;24.726;2023-02-26T04:30:02;19.87;;;8.23;;
7017;SDS011;3549;42.162;24.726;2023-02-26T04:32:28;19.10;;;9.03;;
7017;SDS011;3549;42.162;24.726;2023-02-26T04:34:54;25.90;;;9.70;;
7017;SDS011;3549;42.162;24.726;2023-02-26T04:37:19;16.17;;;8.13;;
7017;SDS011;3549;42.162;24.726;2023-02-26T04:39:45;22.97;;;9.23;;
7017;SDS011;3549;42.162;24.726;2023-02-26T04:42:10;23.97;;;8.57;;
7017;SDS011;3549;42.162;24.726;2023-02-26T04:44:35;31.30;;;11.67;;
7017;SDS011;3549;42.162;24.726;2023-02-26T04:47:01;28.30;;;10.83;;
7017;SDS011;3549;42.162;24.726;2023-02-26T04:49:26;23.23;;;9.10;;
7017;SDS011;3549;42.162;24.726;2023-02-26T04:51:52;23.00;;;10.00;;
7017;SDS011;3549;42.162;24.726;2023-02-26T04:54:17;26.07;;;9.33;;
7017;SDS011;3549;42.162;24.726;2023-02-26T04:56:43;23.13;;;8.97;;
7017;SDS011;3549;42.162;24.726;2023-02-26T04:59:08;27.80;;;8.90;;
7017;SDS011;3549;42.162;24.726;2023-02-26T05:01:34;22.70;;;8.67;;
7017;SDS011;3549;42.162;24.726;2023-02-26T05:03:59;20.60;;;9.17;;
7017;SDS011;3549;42.162;24.726;2023-02-26T05:06:25;22.30;;;9.90;;
7017;SDS011;3549;42.162;24.726;2023-02-26T05:08:51;22.40;;;9.77;;
7017;SDS011;3549;42.162;24.726;2023-02-26T05:11:16;25.33;;;9.20;;
7017;SDS011;3549;42.162;24.726;2023-02-26T05:13:41;21.93;;;9.27;;
7017;SDS011;3549;42.162;24.726;2023-02-26T05:16:07;26.90;;;9.47;;
7017;SDS011;3549;42.162;24.726;2023-02-26T05:18:33;25.93;;;9.57;;
7017;SDS011;3549;42.162;24.726;2023-02-26T05:20:58;26.77;;;9.73;;
7017;SDS011;3549;42.162;24.726;2023-02-26T05:23:24;20.73;;;9.13;;
7017;SDS011;3549;42.162;24.726;2023-02-26T05:25:49;28.20;;;9.90;;
7017;SDS011;3549;42.162;24.726;2023-02-26T05:28:15;30.43;;;10.40;;
7017;SDS011;3549;42.162;24.726;2023-02-26T05:30:41;25.80;;;10.87;;
7017;SDS011;3549;42.162;24.726;2023-02-26T05:33:07;30.20;;;10.87;;
7017;SDS011;3549;42.162;24.726;2023-02-26T05:35:32;28.43;;;12.13;;
7017;SDS011;3549;42.162;24.726;2023-02-26T05:37:58;28.30;;;10.87;;
7017;SDS011;3549;42.162;24.726;2023-02-26T05:40:24;40.07;;;19.17;;
7017;SDS011;3549;42.162;24.726;2023-02-26T05:42:50;38.07;;;15.83;;
7017;SDS011;3549;42.162;24.726;2023-02-26T05:45:16;33.67;;;13.43;;
7017;SDS011;3549;42.162;24.726;2023-02-26T05:47:42;23.93;;;10.13;;
7017;SDS011;3549;42.162;24.726;2023-02-26T05:50:07;65.07;;;34.17;;
7017;SDS011;3549;42.162;24.726;2023-02-26T05:52:34;56.27;;;28.93;;
7017;SDS011;3549;42.162;24.726;2023-02-26T05:54:59;53.67;;;27.43;;
7017;SDS011;3549;42.162;24.726;2023-02-26T05:57:25;38.57;;;18.97;;
7017;SDS011;3549;42.162;24.726;2023-02-26T05:59:50;38.27;;;18.87;;
7017;SDS011;3549;42.162;24.726;2023-02-26T06:02:15;44.33;;;22.07;;
7017;SDS011;3549;42.162;24.726;2023-02-26T06:04:41;71.70;;;28.20;;
7017;SDS011;3549;42.162;24.726;2023-02-26T06:07:07;118.83;;;48.60;;
7017;SDS011;3549;42.162;24.726;2023-02-26T06:09:32;53.20;;;23.03;;
7017;SDS011;3549;42.162;24.726;2023-02-26T06:11:58;60.33;;;28.03;;
7017;SDS011;3549;42.162;24.726;2023-02-26T06:14:23;49.33;;;21.40;;
7017;SDS011;3549;42.162;24.726;2023-02-26T06:16:49;34.73;;;13.80;;
7017;SDS011;3549;42.162;24.726;2023-02-26T06:19:14;29.47;;;12.40;;
7017;SDS011;3549;42.162;24.726;2023-02-26T06:21:40;30.10;;;11.87;;
7017;SDS011;3549;42.162;24.726;2023-02-26T06:24:05;26.50;;;12.30;;
7017;SDS011;3549;42.162;24.726;2023-02-26T06:26:31;42.50;;;21.57;;
7017;SDS011;3549;42.162;24.726;2023-02-26T06:28:56;68.10;;;34.93;;
7017;SDS011;3549;42.162;24.726;2023-02-26T06:31:22;39.13;;;20.43;;
7017;SDS011;3549;42.162;24.726;2023-02-26T06:33:47;69.67;;;37.13;;
7017;SDS011;3549;42.162;24.726;2023-02-26T06:36:13;81.60;;;35.50;;
7017;SDS011;3549;42.162;24.726;2023-02-26T06:38:38;53.67;;;25.43;;
7017;SDS011;3549;42.162;24.726;2023-02-26T06:41:04;55.40;;;27.13;;
7017;SDS011;3549;42.162;24.726;2023-02-26T06:43:30;48.93;;;24.27;;
7017;SDS011;3549;42.162;24.726;2023-02-26T06:45:58;54.33;;;23.33;;
7017;SDS011;3549;42.162;24.726;2023-02-26T06:48:25;45.30;;;20.17;;
7017;SDS011;3549;42.162;24.726;2023-02-26T06:50:51;40.13;;;16.53;;
7017;SDS011;3549;42.162;24.726;2023-02-26T06:53:17;42.57;;;19.23;;
7017;SDS011;3549;42.162;24.726;2023-02-26T06:55:43;43.10;;;20.37;;
7017;SDS011;3549;42.162;24.726;2023-02-26T06:58:09;40.97;;;18.03;;
7017;SDS011;3549;42.162;24.726;2023-02-26T07:00:35;35.53;;;13.03;;
7017;SDS011;3549;42.162;24.726;2023-02-26T07:03:02;41.77;;;14.80;;
7017;SDS011;3549;42.162;24.726;2023-02-26T07:05:28;33.70;;;13.30;;
7017;SDS011;3549;42.162;24.726;2023-02-26T07:07:53;32.70;;;16.13;;
7017;SDS011;3549;42.162;24.726;2023-02-26T07:10:19;28.77;;;11.57;;
7017;SDS011;3549;42.162;24.726;2023-02-26T07:12:45;32.73;;;12.00;;
7017;SDS011;3549;42.162;24.726;2023-02-26T07:15:12;24.87;;;11.43;;
7017;SDS011;3549;42.162;24.726;2023-02-26T07:17:38;31.20;;;12.17;;
7017;SDS011;3549;42.162;24.726;2023-02-26T07:20:03;30.17;;;13.00;;
7017;SDS011;3549;42.162;24.726;2023-02-26T07:22:30;29.30;;;11.60;;
7017;SDS011;3549;42.162;24.726;2023-02-26T07:24:57;33.87;;;12.00;;
7017;SDS011;3549;42.162;24.726;2023-02-26T07:27:24;32.03;;;13.97;;
7017;SDS011;3549;42.162;24.726;2023-02-26T07:29:50;32.90;;;12.97;;
7017;SDS011;3549;42.162;24.726;2023-02-26T07:32:15;26.40;;;12.13;;
7017;SDS011;3549;42.162;24.726;2023-02-26T07:34:41;25.27;;;10.20;;
7017;SDS011;3549;42.162;24.726;2023-02-26T07:37:06;27.40;;;9.50;;
7017;SDS011;3549;42.162;24.726;2023-02-26T07:39:32;27.27;;;10.40;;
7017;SDS011;3549;42.162;24.726;2023-02-26T07:41:57;30.73;;;9.73;;
7017;SDS011;3549;42.162;24.726;2023-02-26T07:44:23;23.47;;;9.47;;
7017;SDS011;3549;42.162;24.726;2023-02-26T07:46:48;20.00;;;7.57;;
7017;SDS011;3549;42.162;24.726;2023-02-26T07:49:14;28.10;;;7.70;;
7017;SDS011;3549;42.162;24.726;2023-02-26T07:51:40;20.00;;;7.80;;
7017;SDS011;3549;42.162;24.726;2023-02-26T07:54:09;21.23;;;6.90;;
7017;SDS011;3549;42.162;24.726;2023-02-26T07:56:36;21.83;;;6.20;;
7017;SDS011;3549;42.162;24.726;2023-02-26T07:59:02;19.40;;;6.30;;
7017;SDS011;3549;42.162;24.726;2023-02-26T08:01:28;21.53;;;6.50;;
7017;SDS011;3549;42.162;24.726;2023-02-26T08:03:53;28.17;;;6.27;;
7017;SDS011;3549;42.162;24.726;2023-02-26T08:06:19;17.97;;;6.20;;
7017;SDS011;3549;42.162;24.726;2023-02-26T08:08:44;21.53;;;6.53;;
7017;SDS011;3549;42.162;24.726;2023-02-26T08:11:09;21.67;;;6.20;;
7017;SDS011;3549;42.162;24.726;2023-02-26T08:13:35;21.93;;;7.47;;
7017;SDS011;3549;42.162;24.726;2023-02-26T08:16:00;22.60;;;7.37;;
7017;SDS011;3549;42.162;24.726;2023-02-26T08:18:26;22.87;;;7.17;;
7017;SDS011;3549;42.162;24.726;2023-02-26T08:20:51;23.03;;;7.20;;
7017;SDS011;3549;42.162;24.726;2023-02-26T08:23:17;21.17;;;6.80;;
7017;SDS011;3549;42.162;24.726;2023-02-26T08:25:43;24.03;;;6.77;;
7017;SDS011;3549;42.162;24.726;2023-02-26T08:28:09;25.73;;;7.00;;
7017;SDS011;3549;42.162;24.726;2023-02-26T08:30:35;15.13;;;4.80;;
7017;SDS011;3549;42.162;24.726;2023-02-26T08:33:00;24.43;;;6.77;;
7017;SDS011;3549;42.162;24.726;2023-02-26T08:35:26;23.30;;;6.67;;
7017;SDS011;3549;42.162;24.726;2023-02-26T08:37:52;16.57;;;6.50;;
7017;SDS011;3549;42.162;24.726;2023-02-26T08:40:18;21.60;;;6.63;;
7017;SDS011;3549;42.162;24.726;2023-02-26T08:42:44;21.67;;;6.27;;
7017;SDS011;3549;42.162;24.726;2023-02-26T08:45:10;23.53;;;6.77;;
7017;SDS011;3549;42.162;24.726;2023-02-26T08:47:35;20.73;;;6.33;;
7017;SDS011;3549;42.162;24.726;2023-02-26T08:50:02;21.90;;;6.37;;
7017;SDS011;3549;42.162;24.726;2023-02-26T08:52:28;19.03;;;5.80;;
7017;SDS011;3549;42.162;24.726;2023-02-26T08:54:54;18.73;;;6.00;;
7017;SDS011;3549;42.162;24.726;2023-02-26T08:57:19;21.57;;;8.33;;
7017;SDS011;3549;42.162;24.726;2023-02-26T08:59:45;26.90;;;9.67;;
7017;SDS011;3549;42.162;24.726;2023-02-26T09:02:11;22.87;;;6.57;;
7017;SDS011;3549;42.162;24.726;2023-02-26T09:04:37;22.67;;;6.47;;
7017;SDS011;3549;42.162;24.726;2023-02-26T09:07:02;20.70;;;5.90;;
7017;SDS011;3549;42.162;24.726;2023-02-26T09:09:28;18.30;;;6.37;;
7017;SDS011;3549;42.162;24.726;2023-02-26T09:11:53;19.70;;;5.40;;
7017;SDS011;3549;42.162;24.726;2023-02-26T09:14:19;17.50;;;5.77;;
7017;SDS011;3549;42.162;24.726;2023-02-26T09:16:44;19.13;;;5.60;;
7017;SDS011;3549;42.162;24.726;2023-02-26T09:19:10;18.60;;;6.67;;
7017;SDS011;3549;42.162;24.726;2023-02-26T09:21:35;19.73;;;5.63;;
7017;SDS011;3549;42.162;24.726;2023-02-26T09:24:01;20.67;;;5.80;;
7017;SDS011;3549;42.162;24.726;2023-02-26T09:26:26;23.27;;;6.50;;
7017;SDS011;3549;42.162;24.726;2023-02-26T09:28:52;17.40;;;5.27;;
7017;SDS011;3549;42.162;24.726;2023-02-26T09:31:17;14.83;;;5.40;;
7017;SDS011;3549;42.162;24.726;2023-02-26T09:33:43;16.07;;;5.60;;
7017;SDS011;3549;42.162;24.726;2023-02-26T09:36:08;22.80;;;5.83;;
7017;SDS011;3549;42.162;24.726;2023-02-26T09:38:34;22.60;;;6.67;;
7017;SDS011;3549;42.162;24.726;2023-02-26T10:50:24;17.80;;;5.80;;
7017;SDS011;3549;42.162;24.726;2023-02-26T10:52:51;25.87;;;7.20;;
7017;SDS011;3549;42.162;24.726;2023-02-26T11:00:46;17.87;;;5.60;;
7017;SDS011;3549;42.162;24.726;2023-02-26T11:03:17;20.30;;;5.70;;
7017;SDS011;3549;42.162;24.726;2023-02-26T11:05:45;17.10;;;5.43;;
7017;SDS011;3549;42.162;24.726;2023-02-26T11:08:17;17.03;;;5.57;;
7017;SDS011;3549;42.162;24.726;2023-02-26T11:10:57;20.67;;;5.13;;
7017;SDS011;3549;42.162;24.726;2023-02-26T11:13:27;16.57;;;5.37;;
7017;SDS011;3549;42.162;24.726;2023-02-26T11:15:56;14.90;;;4.53;;
7017;SDS011;3549;42.162;24.726;2023-02-26T11:18:26;21.20;;;6.00;;
7017;SDS011;3549;42.162;24.726;2023-02-26T11:20:55;21.53;;;6.30;;
7017;SDS011;3549;42.162;24.726;2023-02-26T11:23:23;21.67;;;6.57;;
7017;SDS011;3549;42.162;24.726;2023-02-26T11:25:52;17.85;;;5.68;;
7017;SDS011;3549;42.162;24.726;2023-02-26T11:28:31;21.50;;;7.57;;
7017;SDS011;3549;42.162;24.726;2023-02-26T11:31:00;19.90;;;7.60;;
7017;SDS011;3549;42.162;24.726;2023-02-26T11:33:35;17.10;;;5.90;;
7017;SDS011;3549;42.162;24.726;2023-02-26T11:36:05;16.75;;;5.53;;
7017;SDS011;3549;42.162;24.726;2023-02-26T11:38:35;14.07;;;5.43;;
7017;SDS011;3549;42.162;24.726;2023-02-26T11:41:01;19.95;;;5.65;;
7017;SDS011;3549;42.162;24.726;2023-02-26T11:43:32;16.05;;;4.65;;
7017;SDS011;3549;42.162;24.726;2023-02-26T11:46:01;15.95;;;5.03;;
7017;SDS011;3549;42.162;24.726;2023-02-26T11:48:37;16.40;;;4.72;;
7017;SDS011;3549;42.162;24.726;2023-02-26T11:51:14;17.80;;;5.30;;
7017;SDS011;3549;42.162;24.726;2023-02-26T11:53:54;14.13;;;4.85;;
7017;SDS011;3549;42.162;24.726;2023-02-26T11:59:05;20.65;;;5.45;;
7017;SDS011;3549;42.162;24.726;2023-02-26T12:01:34;20.87;;;6.13;;
7017;SDS011;3549;42.162;24.726;2023-02-26T12:04:01;18.93;;;4.97;;
7017;SDS011;3549;42.162;24.726;2023-02-26T12:06:27;17.27;;;4.50;;
7017;SDS011;3549;42.162;24.726;2023-02-26T12:08:53;16.00;;;4.77;;
7017;SDS011;3549;42.162;24.726;2023-02-26T12:14:16;16.60;;;5.27;;
7017;SDS011;3549;42.162;24.726;2023-02-26T12:22:08;13.77;;;4.97;;
7017;SDS011;3549;42.162;24.726;2023-02-26T12:24:40;17.70;;;6.00;;
7017;SDS011;3549;42.162;24.726;2023-02-26T12:33:32;17.87;;;6.00;;
7017;SDS011;3549;42.162;24.726;2023-02-26T12:44:33;18.77;;;5.90;;
7017;SDS011;3549;42.162;24.726;2023-02-26T12:47:40;14.70;;;5.70;;
7017;SDS011;3549;42.162;24.726;2023-02-26T13:02:14;21.90;;;6.80;;
7017;SDS011;3549;42.162;24.726;2023-02-26T13:16:44;19.20;;;4.77;;
7017;SDS011;3549;42.162;24.726;2023-02-26T13:19:25;15.37;;;4.20;;
7017;SDS011;3549;42.162;24.726;2023-02-26T13:22:14;16.27;;;4.73;;
7017;SDS011;3549;42.162;24.726;2023-02-26T13:25:11;16.10;;;4.43;;
7017;SDS011;3549;42.162;24.726;2023-02-26T13:27:45;13.50;;;4.10;;
7017;SDS011;3549;42.162;24.726;2023-02-26T13:33:16;21.33;;;6.27;;
7017;SDS011;3549;42.162;24.726;2023-02-26T13:35:47;17.30;;;4.50;;
7017;SDS011;3549;42.162;24.726;2023-02-26T13:40:46;20.77;;;4.67;;
7017;SDS011;3549;42.162;24.726;2023-02-26T13:43:18;16.20;;;4.63;;
7017;SDS011;3549;42.162;24.726;2023-02-26T13:51:24;16.83;;;4.70;;
7017;SDS011;3549;42.162;24.726;2023-02-26T13:53:58;15.67;;;4.40;;
7017;SDS011;3549;42.162;24.726;2023-02-26T13:59:02;14.37;;;5.33;;
7017;SDS011;3549;42.162;24.726;2023-02-26T14:01:32;15.20;;;5.10;;
7017;SDS011;3549;42.162;24.726;2023-02-26T14:06:47;19.23;;;5.03;;
7017;SDS011;3549;42.162;24.726;2023-02-26T14:27:35;16.60;;;4.30;;
7017;SDS011;3549;42.162;24.726;2023-02-26T14:35:25;16.40;;;5.77;;
7017;SDS011;3549;42.162;24.726;2023-02-26T14:38:11;18.57;;;4.70;;
7017;SDS011;3549;42.162;24.726;2023-02-26T14:43:41;12.53;;;4.70;;
7017;SDS011;3549;42.162;24.726;2023-02-26T14:46:09;15.57;;;4.60;;
7017;SDS011;3549;42.162;24.726;2023-02-26T14:48:36;16.10;;;4.50;;
7017;SDS011;3549;42.162;24.726;2023-02-26T14:58:45;24.17;;;8.17;;
7017;SDS011;3549;42.162;24.726;2023-02-26T15:15:31;15.97;;;6.27;;
7017;SDS011;3549;42.162;24.726;2023-02-26T15:21:03;15.83;;;5.80;;
7017;SDS011;3549;42.162;24.726;2023-02-26T15:23:37;15.30;;;5.50;;
7017;SDS011;3549;42.162;24.726;2023-02-26T15:26:06;20.93;;;7.60;;
7017;SDS011;3549;42.162;24.726;2023-02-26T15:28:35;11.93;;;5.40;;
7017;SDS011;3549;42.162;24.726;2023-02-26T15:31:04;20.03;;;8.83;;
7017;SDS011;3549;42.162;24.726;2023-02-26T15:33:31;14.80;;;4.50;;
7017;SDS011;3549;42.162;24.726;2023-02-26T15:35:58;15.03;;;4.17;;
7017;SDS011;3549;42.162;24.726;2023-02-26T15:38:25;22.63;;;8.60;;
7017;SDS011;3549;42.162;24.726;2023-02-26T15:40:52;12.43;;;4.17;;
7017;SDS011;3549;42.162;24.726;2023-02-26T15:43:22;13.57;;;5.00;;
7017;SDS011;3549;42.162;24.726;2023-02-26T15:45:50;12.17;;;4.13;;
7017;SDS011;3549;42.162;24.726;2023-02-26T15:48:24;12.90;;;4.33;;
7017;SDS011;3549;42.162;24.726;2023-02-26T15:50:55;12.83;;;4.37;;
7017;SDS011;3549;42.162;24.726;2023-02-26T15:53:34;13.63;;;4.83;;
7017;SDS011;3549;42.162;24.726;2023-02-26T15:56:16;12.90;;;5.87;;
7017;SDS011;3549;42.162;24.726;2023-02-26T15:59:00;11.07;;;5.17;;
7017;SDS011;3549;42.162;24.726;2023-02-26T16:01:28;10.60;;;4.30;;
7017;SDS011;3549;42.162;24.726;2023-02-26T16:03:55;13.70;;;4.50;;
7017;SDS011;3549;42.162;24.726;2023-02-26T16:06:24;18.20;;;8.40;;
7017;SDS011;3549;42.162;24.726;2023-02-26T16:08:56;10.80;;;4.43;;
7017;SDS011;3549;42.162;24.726;2023-02-26T16:11:23;19.87;;;4.80;;
7017;SDS011;3549;42.162;24.726;2023-02-26T16:13:56;15.10;;;6.00;;
7017;SDS011;3549;42.162;24.726;2023-02-26T16:16:24;19.87;;;5.97;;
7017;SDS011;3549;42.162;24.726;2023-02-26T16:18:53;29.40;;;12.93;;
7017;SDS011;3549;42.162;24.726;2023-02-26T16:21:28;30.63;;;13.27;;
7017;SDS011;3549;42.162;24.726;2023-02-26T16:23:57;19.87;;;8.27;;
7017;SDS011;3549;42.162;24.726;2023-02-26T16:26:30;18.30;;;6.23;;
7017;SDS011;3549;42.162;24.726;2023-02-26T16:29:05;17.10;;;4.97;;
7017;SDS011;3549;42.162;24.726;2023-02-26T16:31:36;16.77;;;5.13;;
7017;SDS011;3549;42.162;24.726;2023-02-26T16:36:47;20.17;;;5.77;;
7017;SDS011;3549;42.162;24.726;2023-02-26T16:39:21;27.73;;;6.70;;
7017;SDS011;3549;42.162;24.726;2023-02-26T16:42:13;18.70;;;5.30;;
7017;SDS011;3549;42.162;24.726;2023-02-26T16:44:49;42.70;;;15.00;;
7017;SDS011;3549;42.162;24.726;2023-02-26T16:47:28;20.03;;;5.13;;
7017;SDS011;3549;42.162;24.726;2023-02-26T16:49:55;18.00;;;6.37;;
7017;SDS011;3549;42.162;24.726;2023-02-26T16:52:22;22.00;;;6.97;;
7017;SDS011;3549;42.162;24.726;2023-02-26T16:54:59;23.53;;;9.03;;
7017;SDS011;3549;42.162;24.726;2023-02-26T16:57:38;21.83;;;10.00;;
7017;SDS011;3549;42.162;24.726;2023-02-26T17:00:16;28.53;;;12.53;;
7017;SDS011;3549;42.162;24.726;2023-02-26T17:02:54;19.90;;;7.20;;
7017;SDS011;3549;42.162;24.726;2023-02-26T17:05:24;18.60;;;7.20;;
7017;SDS011;3549;42.162;24.726;2023-02-26T17:07:54;18.37;;;7.70;;
7017;SDS011;3549;42.162;24.726;2023-02-26T17:10:30;29.57;;;11.77;;
7017;SDS011;3549;42.162;24.726;2023-02-26T17:13:14;24.97;;;10.73;;
7017;SDS011;3549;42.162;24.726;2023-02-26T17:15:41;20.30;;;9.47;;
7017;SDS011;3549;42.162;24.726;2023-02-26T17:18:09;26.10;;;12.53;;
7017;SDS011;3549;42.162;24.726;2023-02-26T17:20:35;27.03;;;12.73;;
7017;SDS011;3549;42.162;24.726;2023-02-26T17:23:01;25.70;;;9.77;;
7017;SDS011;3549;42.162;24.726;2023-02-26T17:25:33;63.13;;;34.70;;
7017;SDS011;3549;42.162;24.726;2023-02-26T17:28:03;52.93;;;24.60;;
7017;SDS011;3549;42.162;24.726;2023-02-26T17:30:29;24.67;;;11.93;;
7017;SDS011;3549;42.162;24.726;2023-02-26T17:32:57;27.10;;;11.27;;
7017;SDS011;3549;42.162;24.726;2023-02-26T17:35:23;20.97;;;8.63;;
7017;SDS011;3549;42.162;24.726;2023-02-26T17:37:48;85.10;;;41.63;;
7017;SDS011;3549;42.162;24.726;2023-02-26T17:42:52;60.93;;;29.40;;
7017;SDS011;3549;42.162;24.726;2023-02-26T17:45:18;56.43;;;28.03;;
7017;SDS011;3549;42.162;24.726;2023-02-26T17:47:44;28.57;;;13.30;;
7017;SDS011;3549;42.162;24.726;2023-02-26T17:53:00;20.53;;;9.33;;
7017;SDS011;3549;42.162;24.726;2023-02-26T17:55:29;21.07;;;10.20;;
7017;SDS011;3549;42.162;24.726;2023-02-26T17:57:55;32.37;;;13.80;;
7017;SDS011;3549;42.162;24.726;2023-02-26T18:00:21;30.70;;;11.50;;
7017;SDS011;3549;42.162;24.726;2023-02-26T18:02:47;34.83;;;12.70;;
7017;SDS011;3549;42.162;24.726;2023-02-26T18:05:15;33.20;;;12.37;;
7017;SDS011;3549;42.162;24.726;2023-02-26T18:07:42;26.87;;;12.30;;
7017;SDS011;3549;42.162;24.726;2023-02-26T18:10:10;30.30;;;12.50;;
7017;SDS011;3549;42.162;24.726;2023-02-26T18:12:46;14.57;;;6.50;;
7017;SDS011;3549;42.162;24.726;2023-02-26T18:15:12;22.07;;;8.53;;
7017;SDS011;3549;42.162;24.726;2023-02-26T18:17:38;22.50;;;8.87;;
7017;SDS011;3549;42.162;24.726;2023-02-26T18:20:04;23.30;;;8.30;;
7017;SDS011;3549;42.162;24.726;2023-02-26T18:22:31;21.20;;;8.77;;
7017;SDS011;3549;42.162;24.726;2023-02-26T18:24:57;31.70;;;12.90;;
7017;SDS011;3549;42.162;24.726;2023-02-26T18:27:23;19.53;;;10.40;;
7017;SDS011;3549;42.162;24.726;2023-02-26T18:29:50;24.40;;;9.67;;
7017;SDS011;3549;42.162;24.726;2023-02-26T18:32:20;28.23;;;13.70;;
7017;SDS011;3549;42.162;24.726;2023-02-26T18:34:47;20.67;;;10.10;;
7017;SDS011;3549;42.162;24.726;2023-02-26T18:37:16;22.47;;;10.17;;
7017;SDS011;3549;42.162;24.726;2023-02-26T18:39:44;32.53;;;14.73;;
7017;SDS011;3549;42.162;24.726;2023-02-26T18:42:21;25.57;;;11.40;;
7017;SDS011;3549;42.162;24.726;2023-02-26T18:44:48;23.30;;;10.83;;
7017;SDS011;3549;42.162;24.726;2023-02-26T18:47:15;25.10;;;12.30;;
7017;SDS011;3549;42.162;24.726;2023-02-26T18:49:42;26.07;;;11.67;;
7017;SDS011;3549;42.162;24.726;2023-02-26T18:52:08;20.67;;;9.27;;
7017;SDS011;3549;42.162;24.726;2023-02-26T18:54:33;29.60;;;15.07;;